Latest Weather Observations for Yulara

IDD60801

Issued at 2:35 pm CST Tuesday 21 October 2014 (issued every 30 minutes, with the page automatically refreshed every 10 minutes)

About weather observations | Map of weather stations | Latest weather observations for NT | Other Formats
Station Details ID: 015635 Name: YULARA AIRPORT Lat: -25.19 Lon: 130.97 Height: 492.0 m
Data from the previous 72 hours. | See also: Recent months at Yulara
Date/Time
CST
Temp
°C
App
Temp
°C
Dew
Point
Rel
Hum
%
Delta-T
°C
Wind Press
QNH
hPa
Press
MSL
hPa
Rain
since 9 am
mm
Dir
 
Spd
km/h
Gust
km/h
Spd
kts
Gust
kts
21/02:30pm 38.6 33.7 -3.3 7 20.5 WNW 13 24 7 13 1015.9 1013.4 0.0
21/02:00pm 38.1 32.4 -3.7 7 20.3 NW 17 30 9 16 1016.4 1013.9 0.0
21/01:30pm 38.0 30.6 -3.7 7 20.2 WNW 26 32 14 17 1017.0 1014.5 0.0
21/01:00pm 37.7 31.2 -2.2 8 19.8 NW 22 39 12 21 1017.5 1015.0 0.0
21/12:30pm 37.1 31.0 -2.6 8 19.5 NNW 20 33 11 18 1018.0 1015.5 0.0
21/12:00pm 36.8 30.1 -1.2 9 19.0 NW 24 39 13 21 1018.3 1015.8 0.0
21/11:30am 35.8 29.7 -2.0 9 18.5 NNW 20 30 11 16 1018.7 1016.3 0.0
21/11:00am 35.5 29.0 -2.2 9 18.4 NNW 22 35 12 19 1019.0 1016.5 0.0
21/10:30am 35.3 28.1 -2.3 9 18.3 NNW 26 33 14 18 1019.2 1016.7 0.0
21/10:00am 34.3 26.6 -3.1 9 17.9 NNW 28 39 15 21 1019.2 1016.7 0.0
21/09:30am 34.0 26.6 -3.3 9 17.7 N 26 35 14 19 1019.0 1016.5 0.0
21/09:00am 32.8 25.0 -4.2 9 17.1 N 28 41 15 22 1018.7 1016.3 0.0
21/08:30am 31.2 24.4 -5.4 9 16.4 N 22 30 12 16 1018.6 1016.2 0.0
21/08:00am 28.3 22.0 -6.2 10 14.9 NNE 19 22 10 12 1018.4 1015.9 0.0
21/07:30am 26.2 20.2 -6.5 11 13.8 NE 17 20 9 11 1018.2 1015.7 0.0
21/07:28am 25.8 19.8 -6.9 11 13.7 NE 17 19 9 10 1018.2 1015.7 0.0
21/07:00am 20.7 16.1 -7.7 14 11.1 E 9 11 5 6 1018.0 1015.5 0.0
21/06:30am 16.4 11.7 -8.7 17 9.2 WSW 9 15 5 8 1017.9 1015.4 0.0
21/06:00am 15.4 12.4 -9.5 17 8.8 ENE 0 7 0 4 1017.4 1014.9 0.0
21/05:30am 17.4 10.8 -8.6 16 9.6 SW 19 24 10 13 1016.9 1014.4 0.0
21/05:00am 18.4 14.2 -9.5 14 10.3 E 6 9 3 5 1015.8 1013.3 0.0
21/04:30am 19.4 16.1 -8.7 14 10.6 ESE 2 7 1 4 1015.5 1013.0 0.0
21/04:00am 19.0 15.6 -9.1 14 10.5 E 2 7 1 4 1015.3 1012.8 0.0
21/03:30am 19.7 15.9 -9.5 13 10.9 SE 4 11 2 6 1015.3 1012.8 0.0
21/03:00am 22.4 16.9 -9.5 11 12.3 ESE 13 19 7 10 1015.2 1012.7 0.0
21/02:30am 21.7 17.9 -10.0 11 12.0 N 4 6 2 3 1015.1 1012.6 0.0
21/02:00am 21.8 17.0 -11.1 10 12.2 WNW 9 13 5 7 1015.4 1012.9 0.0
21/01:30am 20.5 16.3 -9.8 12 11.4 WNW 6 24 3 13 1015.9 1013.4 0.0
21/01:00am 19.5 16.5 -8.7 14 10.7 WNW 0 7 0 4 1015.9 1013.4 0.0
21/12:30am 19.6 16.6 -9.5 13 10.9 CALM 0 0 0 0 1015.9 1013.4 0.0
21/12:00am 20.8 17.8 -9.6 12 11.5 NNE 0 4 0 2 1016.1 1013.6 0.0
 
Date/Time
CST
Temp
°C
App
Temp
°C
Dew
Point
Rel
Hum
%
Delta-T
°C
Wind Press
QNH
hPa
Press
MSL
hPa
Rain
since 9 am
mm
Dir
 
Spd
km/h
Gust
km/h
Spd
kts
Gust
kts
20/11:30pm 21.1 18.0 -10.5 11 11.8 CALM 0 0 0 0 1016.4 1013.9 0.0
20/11:00pm 20.5 17.5 -9.8 12 11.4 CALM 0 0 0 0 1016.6 1014.1 0.0
20/10:30pm 20.7 17.6 -10.8 11 11.6 CALM 0 0 0 0 1016.6 1014.1 0.0
20/10:00pm 20.8 17.7 -10.7 11 11.6 CALM 0 0 0 0 1016.8 1014.2 0.0
20/09:30pm 21.9 18.7 -12.4 9 12.4 CALM 0 0 0 0 1016.6 1014.1 0.0
20/09:00pm 22.8 19.6 -11.7 9 12.8 CALM 0 6 0 3 1016.5 1014.0 0.0
20/08:30pm 24.8 20.3 -11.7 8 13.8 NNE 7 9 4 5 1016.2 1013.7 0.0
20/08:00pm 25.5 21.1 -12.8 7 14.3 NE 6 7 3 4 1016.0 1013.5 0.0
20/07:30pm 30.0 25.7 -11.4 6 16.6 NNE 6 9 3 5 1015.6 1013.1 0.0
20/07:00pm 33.3 28.4 -11.4 5 18.5 N 9 11 5 6 1015.3 1012.8 0.0
20/06:30pm 35.4 30.1 -12.7 4 19.9 N 11 19 6 10 1015.0 1012.4 0.0
20/06:00pm 36.5 30.5 -12.0 4 20.4 N 15 24 8 13 1014.5 1012.0 0.0
20/05:30pm 36.8 30.2 -15.3 3 20.9 NNE 17 26 9 14 1014.3 1011.8 0.0
20/05:00pm 37.3 31.5 -14.9 3 21.2 NE 13 26 7 14 1014.2 1011.7 0.0
20/04:30pm 38.1 31.2 -14.4 3 21.6 NNW 19 26 10 14 1014.2 1011.7 0.0
20/04:00pm 37.9 30.8 -14.6 3 21.5 N 20 30 11 16 1014.4 1011.9 0.0
20/03:30pm 38.0 30.5 -14.5 3 21.6 NW 22 28 12 15 1014.5 1012.0 0.0
20/03:00pm 37.8 30.8 -14.6 3 21.5 NNW 19 28 10 15 1014.8 1012.2 0.0
20/02:30pm 37.5 30.5 -14.8 3 21.3 NNW 19 30 10 16 1015.1 1012.6 0.0
20/02:00pm 36.8 29.1 -11.8 4 20.6 N 24 35 13 19 1015.5 1013.0 0.0
20/01:30pm 38.1 30.8 -10.9 4 21.3 NE 22 33 12 18 1015.9 1013.4 0.0
20/01:00pm 37.2 30.2 -11.5 4 20.8 NNW 20 33 11 18 1016.4 1013.9 0.0
20/12:30pm 36.8 31.1 -11.8 4 20.6 NNE 13 39 7 21 1017.0 1014.5 0.0
20/12:00pm 36.6 28.5 -11.9 4 20.5 NNE 26 52 14 28 1017.3 1014.8 0.0
20/11:30am 36.1 29.7 -12.2 4 20.2 N 17 26 9 14 1017.8 1015.3 0.0
20/11:00am 35.5 29.6 -9.9 5 19.6 N 15 26 8 14 1018.3 1015.8 0.0
20/10:30am 34.5 29.3 -10.6 5 19.1 N 11 19 6 10 1018.7 1016.3 0.0
20/10:00am 32.3 26.6 -12.1 5 18.0 NNE 13 19 7 10 1019.1 1016.6 0.0
20/09:30am 30.9 25.2 -13.1 5 17.3 NE 13 19 7 10 1019.2 1016.7 0.0
20/09:00am 29.1 23.7 -14.3 5 16.4 ENE 11 15 6 8 1019.1 1016.6 0.0
20/08:30am 27.3 21.6 -13.4 6 15.3 E 13 17 7 9 1019.1 1016.6 0.0
20/08:00am 24.6 18.9 -13.4 7 13.9 E 13 17 7 9 1018.8 1016.4 0.0
20/07:30am 21.7 15.9 -14.0 8 12.5 ESE 13 17 7 9 1018.4 1015.9 0.0
20/07:00am 16.8 12.2 -12.7 12 10.0 SE 7 11 4 6 1018.2 1015.7 0.0
20/06:30am 12.4 7.8 -12.7 16 8.0 SSE 7 9 4 5 1018.0 1015.5 0.0
20/06:00am 13.7 9.1 -13.3 14 8.6 S 7 11 4 6 1017.6 1015.1 0.0
20/05:30am 14.3 8.9 -13.7 13 8.9 S 11 15 6 8 1017.4 1014.9 0.0
20/05:00am 11.8 7.3 -11.7 18 7.6 S 7 9 4 5 1017.0 1014.5 0.0
20/04:30am 14.2 10.2 -12.9 14 8.8 SSE 4 7 2 4 1016.5 1014.0 0.0
20/04:00am 13.6 9.2 -12.5 15 8.5 ESE 6 7 3 4 1016.3 1013.8 0.0
20/03:30am 15.1 11.9 -12.2 14 9.1 CALM 0 0 0 0 1016.2 1013.7 0.0
20/03:00am 15.0 11.4 -13.2 13 9.2 SSW 2 6 1 3 1016.3 1013.8 0.0
20/02:30am 14.0 10.7 -13.0 14 8.7 CALM 0 0 0 0 1016.3 1013.8 0.0
20/02:00am 14.7 11.4 -13.4 13 9.1 CALM 0 0 0 0 1016.4 1013.9 0.0
20/01:30am 16.8 12.7 -13.8 11 10.1 SE 4 7 2 4 1016.8 1014.2 0.0
20/01:00am 19.5 14.8 -14.2 9 11.4 ENE 7 11 4 6 1016.8 1014.2 0.0
20/12:30am 20.1 15.7 -13.7 9 11.7 ESE 6 9 3 5 1016.6 1014.1 0.0
20/12:00am 20.0 15.6 -12.5 10 11.5 SE 6 11 3 6 1017.0 1014.5 0.0
 
Date/Time
CST
Temp
°C
App
Temp
°C
Dew
Point
Rel
Hum
%
Delta-T
°C
Wind Press
QNH
hPa
Press
MSL
hPa
Rain
since 9 am
mm
Dir
 
Spd
km/h
Gust
km/h
Spd
kts
Gust
kts
19/11:30pm 18.3 13.9 -12.6 11 10.7 SE 6 7 3 4 1017.0 1014.5 0.0
19/11:00pm 18.9 15.6 -13.3 10 11.0 CALM 0 0 0 0 1017.1 1014.6 0.0
19/10:30pm 17.8 14.5 -14.2 10 10.6 CALM 0 0 0 0 1017.2 1014.7 0.0
19/10:00pm 18.1 14.5 -12.8 11 10.6 WSW 2 9 1 5 1017.4 1014.9 0.0
19/09:30pm 19.4 16.1 -14.2 9 11.4 CALM 0 0 0 0 1017.3 1014.8 0.0
19/09:00pm 20.8 17.5 -14.6 8 12.1 CALM 0 0 0 0 1016.9 1014.4 0.0
19/08:30pm 21.3 18.0 -14.3 8 12.3 CALM 0 0 0 0 1016.5 1014.0 0.0
19/08:00pm 22.8 19.4 -14.8 7 13.1 CALM 0 0 0 0 1016.4 1013.9 0.0
19/07:30pm 26.3 21.8 -14.1 6 14.9 NNE 6 7 3 4 1016.0 1013.5 0.0
19/07:27pm 26.6 22.0 -16.1 5 15.2 NNE 6 7 3 4 1016.0 1013.5 0.0
19/07:00pm 31.6 26.9 -15.3 4 17.9 N 7 11 4 6 1015.7 1013.2 0.0
19/06:30pm 34.2 28.6 -17.0 3 19.5 N 11 17 6 9 1015.3 1012.8 0.0
19/06:00pm 35.0 28.7 -16.5 3 20.0 NNE 15 19 8 10 1015.1 1012.6 0.0
19/05:30pm 34.9 29.0 -16.5 3 19.9 N 13 19 7 10 1014.9 1012.3 0.0
19/05:00pm 35.6 28.4 -16.1 3 20.3 N 20 24 11 13 1014.9 1012.3 0.0
19/04:30pm 35.8 28.8 -15.9 3 20.4 N 19 28 10 15 1014.8 1012.2 0.0
19/04:00pm 36.2 29.2 -15.7 3 20.6 NNW 19 33 10 18 1015.2 1012.7 0.0
19/03:30pm 36.2 30.3 -15.7 3 20.6 NNE 13 22 7 12 1015.1 1012.6 0.0
19/03:00pm 35.7 29.1 -16.0 3 20.3 N 17 22 9 12 1015.4 1012.9 0.0
19/02:30pm 36.0 28.0 -15.8 3 20.5 N 24 35 13 19 1015.9 1013.4 0.0
19/02:00pm 35.5 27.9 -16.1 3 20.2 NNE 22 30 12 16 1016.2 1013.7 0.0
19/01:40pm 35.3 25.8 -16.3 3 20.1 N 32 43 17 23 1016.4 1013.9 0.0
19/01:30pm 35.5 30.4 -16.1 3 20.2 NNW 9 20 5 11 1016.5 1014.0 0.0
19/01:00pm 35.3 27.3 -16.3 3 20.1 N 24 35 13 19 1017.0 1014.5 0.0
19/12:30pm 35.0 27.4 -16.5 3 19.9 N 22 33 12 18 1017.4 1014.9 0.0
19/12:00pm 34.4 27.5 -13.4 4 19.3 NNW 19 33 10 18 1017.8 1015.3 0.0
19/11:30am 34.7 27.3 -13.2 4 19.5 NNW 22 32 12 17 1018.1 1015.6 0.0
19/11:00am 33.4 26.3 -14.1 4 18.8 N 20 28 11 15 1018.6 1016.2 0.0
19/10:30am 32.1 24.7 -12.2 5 17.9 N 22 30 12 16 1019.2 1016.7 0.0
19/10:00am 30.8 23.4 -13.1 5 17.3 N 22 33 12 18 1019.5 1017.0 0.0
19/09:30am 29.4 23.0 -11.9 6 16.3 N 17 30 9 16 1019.5 1017.0 0.0
19/09:00am 27.3 21.2 -13.4 6 15.3 NNE 15 22 8 12 1019.6 1017.1 0.0
19/08:30am 24.9 18.8 -13.2 7 14.0 NNE 15 24 8 13 1019.6 1017.1 0.0
19/08:00am 22.6 17.6 -13.3 8 12.9 E 9 13 5 7 1019.3 1016.8 0.0
19/07:30am 19.9 14.9 -13.9 9 11.6 ESE 9 15 5 8 1019.2 1016.7 0.0
19/07:00am 16.0 11.1 -12.4 13 9.6 SSE 9 13 5 7 1019.0 1016.5 0.0
19/06:56am 15.6 10.7 -12.7 13 9.4 SSE 9 13 5 7 1018.8 1016.4 0.0
19/06:30am 10.6 5.7 -12.7 18 7.2 SSE 9 9 5 5 1018.6 1016.2 0.0
19/06:00am 10.9 5.9 -13.2 17 7.4 SSE 9 11 5 6 1018.3 1015.8 0.0
19/05:30am 9.8 5.4 -12.7 19 6.9 SSE 6 7 3 4 1017.9 1015.4 0.0
19/05:00am 11.6 7.0 -12.6 17 7.6 SSE 7 9 4 5 1017.6 1015.1 0.0
19/04:30am 11.6 7.2 -13.3 16 7.7 SSE 6 7 3 4 1017.5 1015.0 0.0
19/04:00am 12.9 8.5 -13.1 15 8.3 SE 6 7 3 4 1017.3 1014.8 0.0
19/03:30am 14.7 9.7 -13.4 13 9.1 SE 9 11 5 6 1017.3 1014.8 0.0
19/03:00am 14.1 9.1 -13.0 14 8.8 SE 9 11 5 6 1017.4 1014.9 0.0
19/02:30am 14.5 9.9 -13.5 13 9.0 SE 7 9 4 5 1017.5 1015.0 0.0
19/02:00am 14.1 9.1 -13.0 14 8.8 ESE 9 11 5 6 1017.6 1015.1 0.0
19/01:30am 13.7 9.1 -13.3 14 8.6 ESE 7 9 4 5 1017.8 1015.3 0.0
19/01:00am 14.0 9.4 -13.0 14 8.7 SE 7 9 4 5 1018.0 1015.5 0.0
19/12:30am 15.4 10.8 -13.8 12 9.4 ESE 7 9 4 5 1018.1 1015.6 0.0
19/12:00am 16.4 13.1 -14.1 11 9.9 CALM 0 0 0 0 1018.4 1015.9 0.0
 
Date/Time
CST
Temp
°C
App
Temp
°C
Dew
Point
Rel
Hum
%
Delta-T
°C
Wind Press
QNH
hPa
Press
MSL
hPa
Rain
since 9 am
mm
Dir
 
Spd
km/h
Gust
km/h
Spd
kts
Gust
kts
18/11:30pm 18.0 14.7 -14.0 10 10.7 CALM 0 6 0 3 1018.3 1015.8 0.0
18/11:00pm 21.6 16.6 -14.0 8 12.5 ENE 9 13 5 7 1018.4 1015.9 0.0
18/10:30pm 24.0 18.2 -13.9 7 13.6 E 13 17 7 9 1018.2 1015.7 0.0
18/10:00pm 24.8 19.0 -15.2 6 14.2 E 13 17 7 9 1018.0 1015.5 0.0
18/09:30pm 25.9 20.1 -14.4 6 14.7 E 13 17 7 9 1017.7 1015.2 0.0
18/09:00pm 21.9 17.3 -13.8 8 12.6 ESE 7 11 4 6 1017.5 1015.0 0.0
18/08:30pm 23.1 19.8 -14.5 7 13.2 CALM 0 0 0 0 1017.4 1014.9 0.0
18/08:00pm 22.6 18.1 -14.9 7 13.1 ESE 6 9 3 5 1017.2 1014.7 0.0
18/07:30pm 24.8 21.4 -15.2 6 14.2 CALM 0 0 0 0 1016.9 1014.4 0.0
18/07:00pm 29.9 25.1 -16.5 4 17.1 NNE 7 9 4 5 1016.6 1014.1 0.0
18/06:30pm 32.9 27.1 -14.4 4 18.6 ENE 13 17 7 9 1016.2 1013.7 0.0
18/06:00pm 33.9 28.9 -13.7 4 19.1 E 9 13 5 7 1015.8 1013.3 0.0
18/05:30pm 34.2 29.0 -17.0 3 19.5 NW 9 17 5 9 1015.7 1013.2 0.0
18/05:00pm 34.2 29.6 -17.0 3 19.5 NNW 6 19 3 10 1015.7 1013.2 0.0
18/04:30pm 34.1 28.5 -17.0 3 19.5 ENE 11 19 6 10 1015.7 1013.2 0.0
18/04:00pm 33.8 29.2 -13.8 4 19.0 E 7 11 4 6 1015.8 1013.3 0.0
18/03:30pm 34.4 28.3 -13.4 4 19.3 NNE 15 26 8 14 1016.0 1013.5 0.0
18/03:00pm 34.6 28.1 -13.3 4 19.4 ENE 17 24 9 13 1016.4 1013.9 0.0

Other Formats:

Comma delimited format used in spreadsheet applications
http://www.bom.gov.au/fwo/IDD60801/IDD60801.94462.axf

JavaScript Object Notation format (JSON) in row-major order
http://www.bom.gov.au/fwo/IDD60801/IDD60801.94462.json